Time;durP1;ratioP1;P1;durP2;ratioP2;P2;SDS_P1;SDS_P2;PMS_P1;PMS_P2;Temp;Humidity;BMP_temperature;BMP_pressure;BME280_temperature;BME280_humidity;BME280_pressure;Samples;Min_cycle;Max_cycle;Signal;HPM_P1;HPM_P2
2021/10/18 00:00:29;;;;;;;;;22.25;21.00;;;;;20.10;45.67;101218.16;5057705;27;48012;-82
2021/10/18 00:02:54;;;;;;;;;25.75;22.00;;;;;20.03;45.36;101216.53;5082877;27;53527;-82
2021/10/18 00:05:19;;;;;;;;;22.00;19.50;;;;;19.95;46.14;101207.91;5066435;27;45446;-83
2021/10/18 00:07:45;;;;;;;;;21.75;17.25;;;;;19.95;46.30;101210.53;5066283;27;45446;-82
2021/10/18 00:10:10;;;;;;;;;19.50;18.00;;;;;19.93;45.96;101209.72;5066190;27;46054;-82
2021/10/18 00:12:36;;;;;;;;;20.50;20.00;;;;;19.93;46.59;101215.00;5066387;27;45349;-82
2021/10/18 00:15:02;;;;;;;;;20.75;20.75;;;;;19.90;45.89;101209.78;5066320;27;45245;-82
2021/10/18 00:17:27;;;;;;;;;23.00;21.00;;;;;19.91;46.31;101207.09;5076873;27;45430;-82
2021/10/18 00:19:53;;;;;;;;;21.00;16.75;;;;;19.97;46.29;101217.53;5069776;27;56536;-82
2021/10/18 00:22:18;;;;;;;;;21.50;18.25;;;;;20.00;46.32;101221.94;5072622;27;52490;-82
2021/10/18 00:24:43;;;;;;;;;17.50;17.00;;;;;20.04;46.32;101221.81;5103716;27;45254;-82
2021/10/18 00:27:09;;;;;;;;;28.25;24.00;;;;;20.06;46.06;101216.47;5102864;27;45497;-82
2021/10/18 00:29:34;;;;;;;;;19.75;19.00;;;;;20.02;46.30;101206.84;5072691;27;48032;-82
2021/10/18 00:32:00;;;;;;;;;15.25;14.75;;;;;20.10;45.98;101219.94;5103111;27;45599;-81
2021/10/18 00:34:25;;;;;;;;;18.00;15.00;;;;;20.09;45.69;101208.47;5105611;27;45255;-81
2021/10/18 00:36:51;;;;;;;;;19.00;18.25;;;;;20.05;46.13;101209.44;5082901;27;45269;-81
2021/10/18 00:39:16;;;;;;;;;22.25;19.75;;;;;20.03;45.55;101206.81;5096207;27;45410;-81
2021/10/18 00:41:41;;;;;;;;;19.75;17.75;;;;;20.05;45.85;101212.94;5100782;27;47043;-81
2021/10/18 00:44:07;;;;;;;;;24.00;17.50;;;;;20.07;45.91;101210.28;5100907;27;45767;-82
2021/10/18 00:46:32;;;;;;;;;22.00;17.75;;;;;20.08;46.19;101219.97;5065732;27;45356;-81
2021/10/18 00:48:58;;;;;;;;;20.75;18.25;;;;;20.03;46.25;101219.19;5082794;27;45897;-81
2021/10/18 00:51:25;;;;;;;;;20.00;17.50;;;;;20.09;45.57;101223.50;5082377;27;48474;-82
2021/10/18 00:53:55;;;;;;;;;22.25;19.50;;;;;20.05;45.70;101227.97;5100902;27;45286;-81
2021/10/18 00:56:20;;;;;;;;;23.50;18.75;;;;;20.00;46.13;101216.63;5065588;27;45607;-81
2021/10/18 00:58:46;;;;;;;;;22.00;20.25;;;;;19.97;45.45;101219.31;5069738;27;46639;-82
2021/10/18 01:01:11;;;;;;;;;16.50;16.50;;;;;19.89;45.93;101219.47;5082293;27;46606;-81
2021/10/18 01:03:37;;;;;;;;;18.50;17.25;;;;;19.98;46.35;101229.91;5065761;27;45359;-82
2021/10/18 01:06:02;;;;;;;;;21.00;16.25;;;;;20.00;45.98;101232.53;5065461;27;45511;-82
2021/10/18 01:08:28;;;;;;;;;19.00;19.00;;;;;19.96;45.63;101230.81;5048610;27;48252;-82
2021/10/18 01:10:53;;;;;;;;;21.25;17.25;;;;;19.91;46.30;101238.03;5076118;27;45432;-82
2021/10/18 01:13:18;;;;;;;;;20.00;19.25;;;;;19.85;46.04;101225.75;5082540;27;45436;-82
2021/10/18 01:15:44;;;;;;;;;19.50;18.25;;;;;19.92;46.45;101229.16;5100375;27;46192;-81
2021/10/18 01:18:09;;;;;;;;;21.50;17.75;;;;;19.89;45.71;101230.09;5072161;27;62565;-82
2021/10/18 01:20:39;;;;;;;;;22.75;19.25;;;;;19.91;46.62;101233.59;5101293;27;45235;-81
2021/10/18 01:23:06;;;;;;;;;18.00;13.25;;;;;19.88;46.43;101227.47;5100786;27;45496;-81
2021/10/18 01:25:31;;;;;;;;;21.50;20.50;;;;;19.87;46.56;101221.31;5076846;27;45399;-81
2021/10/18 01:27:57;;;;;;;;;18.75;16.50;;;;;19.79;46.02;101215.28;5102564;27;45318;-82
2021/10/18 01:30:23;;;;;;;;;23.75;18.50;;;;;19.86;46.65;101224.00;5102530;27;45517;-81
2021/10/18 01:32:48;;;;;;;;;19.25;18.25;;;;;19.87;46.49;101231.03;5121340;27;45324;-82
2021/10/18 01:35:14;;;;;;;;;18.25;17.25;;;;;19.83;46.68;101224.94;5106767;27;45244;-82
2021/10/18 01:37:39;;;;;;;;;21.25;14.75;;;;;19.88;46.57;101228.34;5051695;27;47976;-81
2021/10/18 01:40:06;;;;;;;;;19.75;18.25;;;;;19.87;46.42;101236.31;5114642;27;45150;-82
2021/10/18 01:42:32;;;;;;;;;20.25;19.50;;;;;19.76;46.81;101218.88;5106251;27;45305;-82
2021/10/18 01:44:57;;;;;;;;;19.00;17.25;;;;;19.84;46.20;101231.09;5105853;27;45430;-82
2021/10/18 01:47:26;;;;;;;;;24.25;17.75;;;;;19.75;46.16;101219.78;5081372;27;54404;-82
2021/10/18 01:49:52;;;;;;;;;17.25;16.75;;;;;19.75;46.39;101211.84;5092240;27;45468;-82
2021/10/18 01:52:17;;;;;;;;;18.00;17.00;;;;;19.83;46.88;101210.81;5085730;27;45370;-82
2021/10/18 01:54:42;;;;;;;;;17.50;17.25;;;;;19.82;46.74;101206.44;5067884;27;60710;-82
2021/10/18 01:57:08;;;;;;;;;25.25;20.50;;;;;19.86;46.51;101213.41;5085063;27;52800;-81
2021/10/18 01:59:33;;;;;;;;;20.75;18.50;;;;;19.86;46.40;101202.81;5102932;27;52168;-82
2021/10/18 02:01:59;;;;;;;;;18.00;16.25;;;;;19.79;45.79;101196.75;5068474;27;45791;-82
2021/10/18 02:04:24;;;;;;;;;18.25;16.50;;;;;19.75;46.36;101203.91;5084944;27;53707;-80
2021/10/18 02:06:49;;;;;;;;;23.75;16.75;;;;;19.68;46.24;101198.78;5103626;27;45304;-79
2021/10/18 02:09:15;;;;;;;;;23.00;19.25;;;;;19.65;46.24;101202.34;5078843;27;45264;-79
2021/10/18 02:11:40;;;;;;;;;17.00;14.25;;;;;19.62;46.64;101202.41;5085113;27;45180;-79
2021/10/18 02:14:06;;;;;;;;;16.75;15.25;;;;;19.57;47.18;101199.00;5078023;27;48931;-79
2021/10/18 02:16:31;;;;;;;;;13.75;13.75;;;;;19.64;46.98;101200.63;5102858;27;58993;-81
2021/10/18 02:18:56;;;;;;;;;21.00;17.00;;;;;19.64;46.52;101205.03;5103256;27;45246;-81
2021/10/18 02:21:22;;;;;;;;;21.50;19.25;;;;;19.58;46.69;101199.88;5103371;27;45893;-80
2021/10/18 02:23:47;;;;;;;;;19.50;19.50;;;;;19.66;46.66;101208.53;5078011;27;45189;-80
2021/10/18 02:26:13;;;;;;;;;20.50;19.25;;;;;19.66;46.94;101208.53;5109386;27;46276;-80
2021/10/18 02:28:38;;;;;;;;;19.75;18.25;;;;;19.63;46.74;101204.13;5105000;27;49636;-80
2021/10/18 02:31:03;;;;;;;;;23.25;20.75;;;;;19.53;46.66;101194.63;5105491;27;45244;-80
2021/10/18 02:33:29;;;;;;;;;19.75;17.25;;;;;19.55;46.99;101197.25;5078578;27;45313;-80
2021/10/18 02:35:54;;;;;;;;;19.25;16.00;;;;;19.51;47.13;101190.25;5085721;27;46052;-81
2021/10/18 02:38:19;;;;;;;;;21.25;20.00;;;;;19.49;46.90;101177.94;5086309;27;45420;-81
2021/10/18 02:40:45;;;;;;;;;18.75;17.25;;;;;19.57;47.68;101190.19;5067705;27;45387;-81
2021/10/18 02:43:10;;;;;;;;;27.50;22.75;;;;;19.51;47.24;101177.91;5050708;27;45478;-80
2021/10/18 02:45:36;;;;;;;;;20.00;18.75;;;;;19.54;47.52;101180.47;5104062;27;45457;-80
2021/10/18 02:48:01;;;;;;;;;21.75;18.50;;;;;19.62;47.91;101191.81;5075158;27;53709;-80
2021/10/18 02:50:27;;;;;;;;;21.75;19.50;;;;;19.63;47.42;101188.25;5102812;27;45322;-80
2021/10/18 02:52:52;;;;;;;;;16.00;15.00;;;;;19.66;47.63;101190.00;5101365;27;47345;-80
2021/10/18 02:55:18;;;;;;;;;16.25;16.00;;;;;19.58;47.57;101174.25;5082743;27;46205;-80
2021/10/18 02:57:43;;;;;;;;;12.50;10.00;;;;;19.65;46.97;101178.53;5092312;27;55548;-80
2021/10/18 03:00:09;;;;;;;;;22.00;18.00;;;;;19.57;46.92;101164.56;5102598;27;45298;-80
2021/10/18 03:02:34;;;;;;;;;20.75;20.50;;;;;19.63;47.33;101166.19;5102436;27;45282;-80
2021/10/18 03:05:00;;;;;;;;;19.25;18.25;;;;;19.62;46.84;101165.34;5083638;27;45262;-81
2021/10/18 03:07:25;;;;;;;;;19.50;19.50;;;;;19.61;46.42;101171.53;5075515;27;45314;-80
2021/10/18 03:09:50;;;;;;;;;26.00;22.25;;;;;19.59;46.84;101173.34;5102638;27;45247;-81
2021/10/18 03:12:16;;;;;;;;;22.75;18.50;;;;;19.55;46.71;101168.13;5100842;27;49228;-81
2021/10/18 03:14:41;;;;;;;;;21.50;17.25;;;;;19.53;46.81;101168.13;5083687;27;46876;-81
2021/10/18 03:17:07;;;;;;;;;18.50;17.50;;;;;19.57;47.14;101163.72;5066797;27;51274;-81
2021/10/18 03:19:32;;;;;;;;;24.00;20.25;;;;;19.61;47.13;101160.94;5102230;27;54722;-81
2021/10/18 03:21:57;;;;;;;;;18.00;15.25;;;;;19.64;46.60;101160.91;5060886;27;48618;-81
2021/10/18 03:24:23;;;;;;;;;17.75;17.00;;;;;19.59;46.91;101154.81;5086102;27;47314;-81
2021/10/18 03:26:48;;;;;;;;;17.75;17.00;;;;;19.62;47.40;101169.75;5074820;27;45184;-81
2021/10/18 03:29:14;;;;;;;;;15.75;14.00;;;;;19.59;47.22;101169.84;5066575;27;45895;-81
2021/10/18 03:31:39;;;;;;;;;17.00;17.00;;;;;19.54;46.65;101179.59;5077957;27;45222;-81
2021/10/18 03:34:05;;;;;;;;;15.25;15.25;;;;;19.46;47.06;101172.72;5083303;27;49007;-81
2021/10/18 03:36:31;;;;;;;;;15.75;14.75;;;;;19.43;47.61;101171.88;5081972;27;45377;-81
2021/10/18 03:38:56;;;;;;;;;21.25;18.75;;;;;19.41;47.41;101169.28;5066857;27;45447;-81
2021/10/18 03:41:22;;;;;;;;;20.25;18.75;;;;;19.41;47.29;101165.75;5066139;27;54740;-81
2021/10/18 03:43:47;;;;;;;;;24.50;21.25;;;;;19.47;47.04;101184.19;5083403;27;45890;-80
2021/10/18 03:46:12;;;;;;;;;19.25;16.50;;;;;19.45;47.81;101178.00;5083606;27;45479;-81
2021/10/18 03:48:38;;;;;;;;;22.25;19.50;;;;;19.40;46.87;101171.97;5118784;27;51303;-81
2021/10/18 03:51:03;;;;;;;;;17.25;16.75;;;;;19.38;47.64;101187.00;5103897;27;45472;-81
2021/10/18 03:53:29;;;;;;;;;22.50;21.50;;;;;19.32;47.73;101184.47;5103474;27;57741;-81
2021/10/18 03:55:54;;;;;;;;;23.00;20.75;;;;;19.28;47.95;101185.41;5069937;27;45857;-81
2021/10/18 03:58:20;;;;;;;;;23.00;21.25;;;;;19.27;47.66;101181.03;5083614;27;45304;-81
2021/10/18 04:00:45;;;;;;;;;25.75;21.75;;;;;19.23;47.92;101180.22;5101714;27;45215;-81
2021/10/18 04:03:10;;;;;;;;;23.50;21.25;;;;;19.25;47.67;101189.00;5082778;27;45373;-81
2021/10/18 04:05:38;;;;;;;;;18.50;16.50;;;;;19.27;47.91;101196.91;5083272;27;49255;-81
2021/10/18 04:08:04;;;;;;;;;20.25;18.25;;;;;19.12;47.39;101169.00;5083339;27;45406;-80
2021/10/18 04:10:32;;;;;;;;;24.75;22.00;;;;;19.14;47.44;101186.56;5083197;27;45405;-81
2021/10/18 04:12:57;;;;;;;;;20.00;18.75;;;;;19.08;47.59;101170.81;5101175;27;46247;-81
2021/10/18 04:15:23;;;;;;;;;18.75;18.75;;;;;19.14;46.97;101176.00;5066037;27;45725;-82
2021/10/18 04:17:48;;;;;;;;;18.25;17.75;;;;;19.18;47.47;101193.53;5079836;27;45489;-82
2021/10/18 04:20:14;;;;;;;;;20.50;18.50;;;;;19.20;47.33;101197.06;5066291;27;45771;-82
2021/10/18 04:22:39;;;;;;;;;24.25;20.25;;;;;19.18;47.57;101201.47;5079980;27;47228;-82
2021/10/18 04:25:05;;;;;;;;;18.75;17.75;;;;;19.14;47.28;101185.72;5092843;27;45481;-82
2021/10/18 04:27:31;;;;;;;;;22.00;18.00;;;;;19.09;47.39;101183.13;5069281;27;45274;-81
2021/10/18 04:29:56;;;;;;;;;18.50;17.50;;;;;19.03;47.30;101185.91;5104291;27;45630;-81
2021/10/18 04:32:21;;;;;;;;;15.75;15.50;;;;;19.09;47.38;101204.28;5099743;27;62050;-81
2021/10/18 04:34:47;;;;;;;;;23.00;20.75;;;;;19.04;47.61;101200.00;5063566;27;45242;-81
2021/10/18 04:37:12;;;;;;;;;21.75;20.25;;;;;19.05;47.45;101202.63;5100218;27;46596;-81
2021/10/18 04:39:37;;;;;;;;;21.50;19.25;;;;;19.11;47.31;101213.09;5082578;27;45256;-81
2021/10/18 04:42:03;;;;;;;;;22.75;21.00;;;;;19.09;47.79;101216.66;5100474;27;55372;-81
2021/10/18 04:44:28;;;;;;;;;24.75;19.00;;;;;19.08;47.18;101215.78;5101222;27;45229;-80
2021/10/18 04:46:54;;;;;;;;;22.25;21.00;;;;;19.12;47.55;101217.50;5066516;27;45212;-81
2021/10/18 04:49:19;;;;;;;;;21.50;18.50;;;;;19.20;47.72;101220.00;5048785;27;45381;-82
2021/10/18 04:51:45;;;;;;;;;17.50;16.50;;;;;19.21;48.53;101232.31;5084999;27;50437;-80
2021/10/18 04:54:10;;;;;;;;;18.50;15.50;;;;;19.32;49.92;101222.41;5103620;27;45369;-79
2021/10/18 04:56:36;;;;;;;;;18.75;17.00;;;;;19.49;49.98;101224.72;5085786;27;45795;-79
2021/10/18 04:59:01;;;;;;;;;21.25;19.00;;;;;19.62;50.12;101217.41;5075001;27;47774;-79
2021/10/18 05:01:27;;;;;;;;;20.50;18.00;;;;;19.79;50.24;101231.19;5080783;27;47155;-81
2021/10/18 05:03:52;;;;;;;;;22.00;20.25;;;;;19.91;50.13;101227.44;5111526;27;45359;-81
2021/10/18 05:06:18;;;;;;;;;18.00;17.50;;;;;20.01;50.02;101240.44;5082340;27;45748;-81
2021/10/18 05:08:43;;;;;;;;;19.50;17.50;;;;;20.17;50.25;101243.63;5092279;27;46270;-80
2021/10/18 05:11:08;;;;;;;;;20.75;17.50;;;;;20.22;51.70;101233.78;5067981;27;48445;-79
2021/10/18 05:13:34;;;;;;;;;18.75;17.75;;;;;20.38;52.83;101247.56;5066156;27;46623;-81
2021/10/18 05:16:03;;;;;;;;;33.00;28.25;;;;;20.41;51.68;101236.88;5098142;27;45497;-77
2021/10/18 05:18:28;;;;;;;;;28.25;20.25;;;;;20.45;51.04;101224.47;5096576;27;45246;-76
2021/10/18 05:20:54;;;;;;;;;371.40;358.40;;;;;20.54;50.99;101250.75;5118670;27;54529;-77
2021/10/18 05:23:19;;;;;;;;;89.25;87.25;;;;;20.58;50.16;101252.41;5105880;27;45310;-78
2021/10/18 05:25:44;;;;;;;;;81.50;74.50;;;;;20.59;49.79;101239.13;5107176;27;51397;-77
2021/10/18 05:28:10;;;;;;;;;72.50;59.75;;;;;20.58;49.35;101240.03;5125342;27;45400;-77
2021/10/18 05:30:36;;;;;;;;;68.75;55.25;;;;;20.52;49.16;101234.88;5105535;27;52578;-82
2021/10/18 05:33:01;;;;;;;;;64.50;52.00;;;;;20.50;49.18;101238.47;5080173;27;45614;-83
2021/10/18 05:35:27;;;;;;;;;36.75;33.50;;;;;20.39;46.43;101244.00;5107006;27;45409;-82
2021/10/18 05:37:54;;;;;;;;;27.25;27.25;;;;;20.15;45.25;101247.19;5097927;27;45290;-82
2021/10/18 05:40:20;;;;;;;;;28.00;27.00;;;;;19.91;48.02;101248.63;5085585;27;45364;-83
2021/10/18 05:42:46;;;;;;;;;27.25;21.75;;;;;19.79;45.78;101246.22;5085249;27;45375;-87
2021/10/18 05:45:11;;;;;;;;;28.75;26.25;;;;;19.66;47.01;101237.66;5064402;27;45456;-87
2021/10/18 05:47:50;;;;;;;;;25.50;18.50;;;;;19.62;45.86;101238.59;5085705;27;45302;-87
2021/10/18 05:50:18;;;;;;;;;25.75;23.00;;;;;19.62;47.05;101247.41;5108330;27;45394;-87
2021/10/18 05:52:43;;;;;;;;;23.75;20.25;;;;;19.62;46.67;101235.94;5061183;27;45539;-84
2021/10/18 05:55:09;;;;;;;;;17.25;17.25;;;;;19.60;47.23;101232.47;5088987;27;45986;-84
2021/10/18 05:58:03;;;;;;;;;27.25;25.50;;;;;19.66;47.03;101238.53;5088669;27;45453;-85
2021/10/18 06:00:28;;;;;;;;;29.25;25.00;;;;;19.60;46.86;101227.19;5088291;27;47202;-87
2021/10/18 06:02:54;;;;;;;;;25.50;22.25;;;;;19.62;48.19;101242.13;5090813;27;61876;-86
2021/10/18 06:05:19;;;;;;;;;27.75;23.50;;;;;19.73;48.15;101250.75;5067961;27;45299;-84
2021/10/18 06:07:48;;;;;;;;;27.00;24.50;;;;;19.78;46.91;101240.03;5052561;27;45482;-85
2021/10/18 06:10:15;;;;;;;;;25.25;23.75;;;;;19.85;47.27;101259.34;5087136;27;45357;-85
2021/10/18 06:12:40;;;;;;;;;24.00;21.00;;;;;19.82;47.20;101254.13;5084753;27;46040;-84
2021/10/18 06:15:06;;;;;;;;;23.50;23.50;;;;;19.71;46.81;101241.94;5068887;27;45474;-84
2021/10/18 06:17:32;;;;;;;;;25.75;23.75;;;;;19.79;47.03;101249.72;5085533;27;45422;-84
2021/10/18 06:19:57;;;;;;;;;27.25;26.25;;;;;19.76;46.66;101245.38;5076668;27;45361;-85
2021/10/18 06:22:23;;;;;;;;;26.00;25.25;;;;;19.73;45.98;101250.75;5080239;27;45445;-85
2021/10/18 06:24:49;;;;;;;;;26.25;25.25;;;;;19.74;46.00;101259.56;5107334;27;45764;-85
2021/10/18 06:27:16;;;;;;;;;26.00;25.00;;;;;19.65;45.86;101255.31;5087226;27;45259;-84
2021/10/18 06:29:41;;;;;;;;;30.25;25.75;;;;;19.66;46.69;101262.34;5051224;27;47472;-85
2021/10/18 06:32:07;;;;;;;;;32.25;28.50;;;;;19.67;46.55;101265.88;5079459;27;45242;-85
2021/10/18 06:34:32;;;;;;;;;23.75;21.00;;;;;19.66;45.71;101265.00;5054565;27;52072;-84
2021/10/18 06:36:58;;;;;;;;;25.00;23.50;;;;;19.63;46.68;101262.41;5054871;27;45261;-83
2021/10/18 06:39:23;;;;;;;;;26.00;22.00;;;;;19.56;46.21;101250.22;5085959;27;46186;-84
2021/10/18 06:42:04;;;;;;;;;30.25;24.50;;;;;19.64;46.37;101268.59;5049849;27;50602;-83
2021/10/18 06:44:30;;;;;;;;;24.50;21.75;;;;;19.63;46.29;101258.88;5063338;27;46213;-82
2021/10/18 06:46:55;;;;;;;;;26.75;20.75;;;;;19.72;45.86;101269.28;5062876;27;45510;-83
2021/10/18 06:49:24;;;;;;;;;24.75;24.00;;;;;19.72;46.44;101262.25;5068757;27;47302;-81
2021/10/18 06:51:55;;;;;;;;;24.50;24.50;;;;;19.84;45.49;101274.34;5082304;27;46266;-80
2021/10/18 06:54:21;;;;;;;;;27.75;23.75;;;;;19.82;46.28;101278.81;5084588;27;45296;-81
2021/10/18 06:56:47;;;;;;;;;24.50;21.75;;;;;19.77;45.79;101272.72;5087668;27;45403;-80
2021/10/18 06:59:13;;;;;;;;;23.00;19.50;;;;;19.78;46.19;101279.78;5064817;27;47682;-84
2021/10/18 07:01:39;;;;;;;;;26.75;24.25;;;;;19.75;46.00;101278.06;5066549;27;45624;-81
2021/10/18 07:04:05;;;;;;;;;22.75;21.00;;;;;19.72;46.68;101274.59;5080021;27;45406;-81
2021/10/18 07:06:30;;;;;;;;;20.50;19.25;;;;;19.68;46.26;101273.78;5070065;27;45563;-79
2021/10/18 07:08:56;;;;;;;;;21.50;20.50;;;;;19.69;45.72;101274.66;5092323;27;55171;-80
2021/10/18 07:11:21;;;;;;;;;24.75;22.25;;;;;19.60;46.24;101280.13;5091495;27;45425;-80
2021/10/18 07:13:47;;;;;;;;;21.50;21.00;;;;;19.59;46.68;101273.97;5090244;27;45439;-80
2021/10/18 07:16:12;;;;;;;;;26.00;23.50;;;;;19.63;46.87;101288.00;5117228;27;45555;-80
2021/10/18 07:18:37;;;;;;;;;30.25;25.25;;;;;19.58;45.93;101277.53;5077040;27;46387;-83
2021/10/18 07:21:03;;;;;;;;;19.50;17.75;;;;;19.60;46.31;101296.91;5090188;27;45887;-82
2021/10/18 07:23:28;;;;;;;;;24.25;20.25;;;;;19.59;46.52;101286.34;5078238;27;45416;-81
2021/10/18 07:25:54;;;;;;;;;24.25;20.50;;;;;19.67;47.64;101289.72;5078629;27;45423;-80
2021/10/18 07:28:20;;;;;;;;;26.50;25.25;;;;;19.65;46.16;101286.22;5110797;27;45556;-81
2021/10/18 07:30:46;;;;;;;;;23.50;21.00;;;;;19.64;46.72;101281.84;5065998;27;45271;-80
2021/10/18 07:33:12;;;;;;;;;22.75;20.25;;;;;19.68;46.54;101288.81;5088651;27;45324;-84
2021/10/18 07:35:37;;;;;;;;;22.50;20.50;;;;;19.75;47.18;101285.13;5083726;27;45615;-81
2021/10/18 07:38:04;;;;;;;;;25.00;18.00;;;;;19.74;46.86;101270.16;5084192;27;45205;-79
2021/10/18 07:40:30;;;;;;;;;21.50;18.00;;;;;19.83;46.75;101290.28;5089267;27;45567;-81
2021/10/18 07:42:55;;;;;;;;;22.75;21.00;;;;;19.81;47.13;101279.72;5100306;27;45587;-82
2021/10/18 07:45:21;;;;;;;;;20.00;18.00;;;;;19.90;46.93;101283.97;5097339;27;45626;-82
2021/10/18 07:47:46;;;;;;;;;26.75;24.50;;;;;19.87;46.65;101284.88;5094323;27;45474;-80
2021/10/18 07:50:12;;;;;;;;;1.50;0.00;;;;;19.88;47.08;101270.72;5096156;27;45433;-81
2021/10/18 07:52:38;;;;;;;;;21.25;19.00;;;;;19.88;46.56;101267.22;5111545;27;45727;-81
2021/10/18 07:55:07;;;;;;;;;25.00;22.00;;;;;19.86;46.35;101269.88;5082158;27;45832;-81
2021/10/18 07:57:33;;;;;;;;;18.00;17.25;;;;;19.95;46.56;101287.38;5096651;27;47185;-80
2021/10/18 07:59:58;;;;;;;;;27.25;23.50;;;;;19.88;46.17;101278.66;5085752;27;45526;-80
2021/10/18 08:02:25;;;;;;;;;21.50;18.00;;;;;19.94;46.28;101297.09;5066615;27;45426;-80
2021/10/18 08:04:50;;;;;;;;;23.25;22.25;;;;;19.96;46.37;101302.38;5068525;27;45592;-80
2021/10/18 08:07:16;;;;;;;;;24.75;19.75;;;;;19.99;46.86;101307.63;5107725;27;46329;-82
2021/10/18 08:09:41;;;;;;;;;19.75;19.00;;;;;20.01;46.83;101311.97;5086638;27;45508;-83
2021/10/18 08:12:07;;;;;;;;;24.00;20.75;;;;;19.97;47.13;101297.03;5062034;27;45584;-82
2021/10/18 08:14:32;;;;;;;;;23.75;21.25;;;;;20.00;47.00;101294.34;5095715;27;45957;-82
2021/10/18 08:17:04;;;;;;;;;19.75;19.50;;;;;20.07;46.54;101310.09;5082454;27;47133;-84
2021/10/18 08:19:29;;;;;;;;;21.50;18.50;;;;;19.98;46.63;101296.16;5075933;27;45442;-83
2021/10/18 08:21:55;;;;;;;;;18.00;17.00;;;;;20.00;46.38;101307.59;5129279;27;45587;-83
2021/10/18 08:24:20;;;;;;;;;20.25;16.00;;;;;20.06;46.75;101319.81;5110660;27;45458;-82
2021/10/18 08:26:45;;;;;;;;;21.25;20.00;;;;;20.11;47.42;101323.25;5090901;27;45410;-82
2021/10/18 08:29:11;;;;;;;;;21.00;16.00;;;;;20.21;46.67;101337.19;5066197;27;45673;-81
2021/10/18 08:31:36;;;;;;;;;22.25;18.50;;;;;20.23;47.43;101336.22;5083268;27;45379;-81
2021/10/18 08:34:02;;;;;;;;;20.50;19.75;;;;;20.28;46.81;101329.06;5078889;27;45580;-81
2021/10/18 08:36:27;;;;;;;;;18.25;18.25;;;;;20.27;47.08;101337.94;5069970;27;48254;-81
2021/10/18 08:38:57;;;;;;;;;24.50;24.25;;;;;20.20;47.14;101323.06;5102272;27;45462;-82
2021/10/18 08:46:38;;;;;;;;;21.75;20.75;;;;;20.17;46.54;101296.63;5107151;27;45381;-80
2021/10/18 08:49:04;;;;;;;;;22.50;20.25;;;;;20.15;46.51;101302.84;5065628;27;45401;-81
2021/10/18 08:51:29;;;;;;;;;22.25;17.25;;;;;20.18;47.03;101313.41;5091514;27;45906;-80
2021/10/18 08:53:55;;;;;;;;;19.75;19.25;;;;;20.12;46.91;101297.63;5082628;27;45383;-81
2021/10/18 08:56:20;;;;;;;;;24.25;21.75;;;;;20.16;46.98;101307.28;5082072;27;47135;-84
2021/10/18 08:58:46;;;;;;;;;22.25;19.25;;;;;20.14;46.95;101304.63;5089523;27;45271;-83
2021/10/18 09:01:11;;;;;;;;;20.75;20.75;;;;;20.20;47.82;101296.56;5102550;27;45632;-83
2021/10/18 09:03:37;;;;;;;;;22.00;19.75;;;;;20.28;46.52;101304.34;5086391;27;45482;-82
2021/10/18 09:06:21;;;;;;;;;24.75;20.00;;;;;20.27;46.74;101299.94;5102627;27;45469;-83
2021/10/18 09:09:07;;;;;;;;;18.25;17.25;;;;;20.24;47.14;101302.66;5081438;27;45945;-82
2021/10/18 09:11:33;;;;;;;;;20.25;16.50;;;;;20.18;46.61;101293.06;5102986;27;45436;-83
2021/10/18 09:14:00;;;;;;;;;25.25;20.75;;;;;20.19;47.00;101289.50;5064297;27;45320;-85
2021/10/18 09:16:28;;;;;;;;;23.00;19.25;;;;;20.28;47.23;101297.25;5079931;27;46533;-84
2021/10/18 09:19:05;;;;;;;;;20.75;20.25;;;;;20.33;47.83;101298.03;5094349;27;45362;-85
2021/10/18 09:21:35;;;;;;;;;21.75;20.25;;;;;20.37;46.79;101287.34;5083692;27;45465;-86
2021/10/18 09:24:02;;;;;;;;;22.50;20.50;;;;;20.32;46.87;101293.63;5082730;27;45414;-86
2021/10/18 09:26:28;;;;;;;;;27.00;24.00;;;;;20.23;46.95;101275.28;5082936;27;46151;-80
2021/10/18 09:28:54;;;;;;;;;19.00;18.00;;;;;20.33;47.16;101278.63;5080717;27;45424;-80
2021/10/18 09:31:20;;;;;;;;;11.75;8.25;;;;;20.37;47.24;101288.22;5074618;27;45586;-80
2021/10/18 09:33:54;;;;;;;;;18.50;18.00;;;;;20.38;47.64;101289.09;5113552;27;45378;-80
2021/10/18 09:36:24;;;;;;;;;22.00;20.25;;;;;20.42;47.40;101286.34;5068689;27;47339;-81
2021/10/18 09:38:49;;;;;;;;;27.00;21.75;;;;;20.45;47.19;101293.41;5083579;27;45253;-81
2021/10/18 09:41:15;;;;;;;;;17.75;16.75;;;;;20.36;47.44;101267.06;5084895;27;45314;-80
2021/10/18 09:43:45;;;;;;;;;27.00;21.00;;;;;20.48;47.18;101278.28;5084408;27;45797;-80
2021/10/18 10:53:54;;;;;;;;;20.75;19.00;;;;;20.66;47.90;101298.19;5088481;27;45312;-80
2021/10/18 10:56:30;;;;;;;;;26.00;21.75;;;;;20.69;47.90;101295.50;5099298;27;45287;-79
2021/10/18 10:59:17;;;;;;;;;14.25;11.25;;;;;20.71;47.86;101298.09;5101365;27;45461;-80
2021/10/18 11:01:50;;;;;;;;;15.75;15.00;;;;;20.71;47.65;101293.66;5085772;27;45493;-79
2021/10/18 11:04:31;;;;;;;;;22.25;19.50;;;;;20.73;47.83;101288.31;5058949;27;47407;-80
2021/10/18 11:07:03;;;;;;;;;20.75;19.25;;;;;20.69;48.11;101271.63;5102282;27;45149;-80
2021/10/18 11:09:42;;;;;;;;;19.50;17.25;;;;;20.71;48.06;101275.09;5064923;27;45435;-81
2021/10/18 11:12:09;;;;;;;;;17.75;17.00;;;;;20.75;47.91;101266.13;5084433;27;45279;-80
2021/10/18 11:14:35;;;;;;;;;19.25;17.25;;;;;20.77;48.32;101279.38;5115282;27;45454;-80
2021/10/18 11:17:00;;;;;;;;;21.25;19.00;;;;;20.80;48.39;101271.34;5095714;27;45390;-79
2021/10/18 11:19:26;;;;;;;;;18.50;17.25;;;;;20.76;48.18;101270.56;5070302;27;45418;-80
2021/10/18 11:21:59;;;;;;;;;19.50;16.25;;;;;20.79;48.34;101269.59;5112084;27;45524;-80
2021/10/18 11:24:24;;;;;;;;;19.50;18.25;;;;;20.74;48.08;101253.78;5085131;27;47058;-80
2021/10/18 11:26:55;;;;;;;;;20.50;20.00;;;;;20.83;48.51;101272.13;5066216;27;45375;-80
2021/10/18 11:29:29;;;;;;;;;19.25;18.25;;;;;20.85;48.20;101291.56;5072158;27;45312;-79
2021/10/18 11:31:54;;;;;;;;;19.25;17.00;;;;;20.88;48.23;101291.47;5110338;27;45445;-80
2021/10/18 11:34:20;;;;;;;;;21.25;17.25;;;;;20.82;48.37;101273.03;5073479;27;47135;-80
2021/10/18 11:36:47;;;;;;;;;20.00;18.25;;;;;20.92;48.26;101278.13;5066523;27;46643;-79
2021/10/18 11:39:13;;;;;;;;;25.00;20.75;;;;;20.88;48.36;101266.72;5087078;27;45418;-79
2021/10/18 11:41:57;;;;;;;;;21.50;19.00;;;;;20.97;48.34;101270.94;5122015;27;45467;-81
2021/10/18 11:44:47;;;;;;;;;17.75;17.75;;;;;20.94;48.50;101261.28;5113664;27;45314;-82
2021/10/18 11:47:34;;;;;;;;;19.75;18.25;;;;;20.96;48.56;101262.09;5093560;27;45571;-83
2021/10/18 11:50:20;;;;;;;;;20.25;19.25;;;;;20.97;48.88;101255.00;5122916;27;45230;-83
2021/10/18 11:52:58;;;;;;;;;17.00;17.00;;;;;20.95;48.87;101241.78;5078091;27;45653;-83
2021/10/18 11:55:37;;;;;;;;;18.00;17.25;;;;;20.98;48.92;101239.03;5090515;27;45474;-86
2021/10/18 11:58:05;;;;;;;;;20.25;18.25;;;;;20.96;49.47;101214.34;5098959;27;45496;-86
2021/10/18 12:00:32;;;;;;;;;17.00;16.00;;;;;20.84;48.98;101196.94;5099779;27;46460;-82
2021/10/18 12:03:00;;;;;;;;;20.00;18.75;;;;;20.93;49.25;101206.44;5104247;27;45625;-80
2021/10/18 12:05:28;;;;;;;;;22.75;19.00;;;;;21.03;49.24;101223.88;5113489;27;45743;-81
2021/10/18 12:07:53;;;;;;;;;18.50;15.50;;;;;21.02;49.10;101222.09;5060856;27;45489;-80
2021/10/18 12:10:37;;;;;;;;;21.25;18.00;;;;;21.03;49.26;101207.09;5058399;28;47629;-79
2021/10/18 12:13:27;;;;;;;;;18.50;17.50;;;;;21.07;49.51;101195.47;5078590;27;45352;-81
2021/10/18 12:15:53;;;;;;;;;20.00;17.50;;;;;21.07;49.34;101192.81;5097906;27;45620;-81
2021/10/18 12:18:28;;;;;;;;;26.50;20.50;;;;;21.06;49.77;101194.59;5077844;27;45296;-80
2021/10/18 12:20:56;;;;;;;;;19.00;19.00;;;;;21.04;49.68;101188.47;5101216;27;45724;-81